sensor_id;sensor_type;location;lat;lon;timestamp;temperature;humidity
33368;DHT22;19724;51.114;13.906;2022-12-22T00:02:03;3.20;99.90
33368;DHT22;19724;51.114;13.906;2022-12-22T00:04:48;3.30;99.90
33368;DHT22;19724;51.114;13.906;2022-12-22T00:07:33;3.20;99.90
33368;DHT22;19724;51.114;13.906;2022-12-22T00:10:18;3.30;99.90
33368;DHT22;19724;51.114;13.906;2022-12-22T00:13:03;3.30;99.90
33368;DHT22;19724;51.114;13.906;2022-12-22T00:15:47;3.30;99.90
33368;DHT22;19724;51.114;13.906;2022-12-22T00:18:32;3.30;99.90
33368;DHT22;19724;51.114;13.906;2022-12-22T00:21:16;3.40;99.90
33368;DHT22;19724;51.114;13.906;2022-12-22T00:24:01;3.30;99.90
33368;DHT22;19724;51.114;13.906;2022-12-22T00:26:45;3.40;99.90
33368;DHT22;19724;51.114;13.906;2022-12-22T00:29:38;3.40;99.90
33368;DHT22;19724;51.114;13.906;2022-12-22T00:32:32;3.40;99.90
33368;DHT22;19724;51.114;13.906;2022-12-22T00:35:21;3.50;99.90
33368;DHT22;19724;51.114;13.906;2022-12-22T00:38:13;3.40;99.90
33368;DHT22;19724;51.114;13.906;2022-12-22T00:40:57;3.50;99.90
33368;DHT22;19724;51.114;13.906;2022-12-22T00:43:41;3.50;99.90
33368;DHT22;19724;51.114;13.906;2022-12-22T00:46:26;3.50;99.90
33368;DHT22;19724;51.114;13.906;2022-12-22T00:49:10;3.50;99.90
33368;DHT22;19724;51.114;13.906;2022-12-22T00:51:55;3.50;99.90
33368;DHT22;19724;51.114;13.906;2022-12-22T00:54:39;3.50;99.90
33368;DHT22;19724;51.114;13.906;2022-12-22T00:57:24;3.50;99.90
33368;DHT22;19724;51.114;13.906;2022-12-22T01:00:16;3.50;99.90
33368;DHT22;19724;51.114;13.906;2022-12-22T01:03:00;3.50;99.90
33368;DHT22;19724;51.114;13.906;2022-12-22T01:05:45;3.50;99.90
33368;DHT22;19724;51.114;13.906;2022-12-22T01:08:29;3.50;99.90
33368;DHT22;19724;51.114;13.906;2022-12-22T01:11:13;3.50;99.90
33368;DHT22;19724;51.114;13.906;2022-12-22T01:13:57;3.50;99.90
33368;DHT22;19724;51.114;13.906;2022-12-22T01:16:41;3.40;99.90
33368;DHT22;19724;51.114;13.906;2022-12-22T01:19:25;3.40;99.90
33368;DHT22;19724;51.114;13.906;2022-12-22T01:22:11;3.40;99.90
33368;DHT22;19724;51.114;13.906;2022-12-22T01:24:55;3.40;99.90
33368;DHT22;19724;51.114;13.906;2022-12-22T01:27:39;3.40;99.90
33368;DHT22;19724;51.114;13.906;2022-12-22T01:30:23;3.40;99.90
33368;DHT22;19724;51.114;13.906;2022-12-22T01:33:12;3.40;99.90
33368;DHT22;19724;51.114;13.906;2022-12-22T01:35:56;3.40;99.90
33368;DHT22;19724;51.114;13.906;2022-12-22T01:38:40;3.40;99.90
33368;DHT22;19724;51.114;13.906;2022-12-22T01:41:24;3.40;99.90
33368;DHT22;19724;51.114;13.906;2022-12-22T01:44:16;3.40;99.90
33368;DHT22;19724;51.114;13.906;2022-12-22T01:50:14;3.40;99.90
33368;DHT22;19724;51.114;13.906;2022-12-22T01:52:58;3.50;99.90
33368;DHT22;19724;51.114;13.906;2022-12-22T01:55:44;3.30;99.90
33368;DHT22;19724;51.114;13.906;2022-12-22T01:58:32;3.40;99.90
33368;DHT22;19724;51.114;13.906;2022-12-22T02:01:17;3.50;99.90
33368;DHT22;19724;51.114;13.906;2022-12-22T02:04:01;3.60;99.90
33368;DHT22;19724;51.114;13.906;2022-12-22T02:06:47;3.60;99.90
33368;DHT22;19724;51.114;13.906;2022-12-22T02:15:37;3.50;99.90
33368;DHT22;19724;51.114;13.906;2022-12-22T02:18:45;3.50;99.90
33368;DHT22;19724;51.114;13.906;2022-12-22T02:21:42;3.60;99.90
33368;DHT22;19724;51.114;13.906;2022-12-22T02:24:34;3.50;99.90
33368;DHT22;19724;51.114;13.906;2022-12-22T02:27:21;3.50;99.90
33368;DHT22;19724;51.114;13.906;2022-12-22T02:30:07;3.60;99.90
33368;DHT22;19724;51.114;13.906;2022-12-22T02:32:51;3.60;99.90
33368;DHT22;19724;51.114;13.906;2022-12-22T02:36:04;3.60;99.90
33368;DHT22;19724;51.114;13.906;2022-12-22T02:45:15;3.60;99.90
33368;DHT22;19724;51.114;13.906;2022-12-22T02:48:12;3.70;99.90
33368;DHT22;19724;51.114;13.906;2022-12-22T02:51:10;3.80;99.90
33368;DHT22;19724;51.114;13.906;2022-12-22T02:53:57;3.70;99.90
33368;DHT22;19724;51.114;13.906;2022-12-22T02:56:43;3.70;99.90
33368;DHT22;19724;51.114;13.906;2022-12-22T02:59:27;3.70;99.90
33368;DHT22;19724;51.114;13.906;2022-12-22T03:02:12;3.70;99.90
33368;DHT22;19724;51.114;13.906;2022-12-22T03:04:56;3.80;99.90
33368;DHT22;19724;51.114;13.906;2022-12-22T03:07:40;3.70;99.90
33368;DHT22;19724;51.114;13.906;2022-12-22T03:10:24;3.70;99.90
33368;DHT22;19724;51.114;13.906;2022-12-22T03:13:09;3.60;99.90
33368;DHT22;19724;51.114;13.906;2022-12-22T03:15:53;3.70;99.90
33368;DHT22;19724;51.114;13.906;2022-12-22T03:18:37;3.70;99.90
33368;DHT22;19724;51.114;13.906;2022-12-22T03:21:21;3.80;99.90
33368;DHT22;19724;51.114;13.906;2022-12-22T03:24:06;3.70;99.90
33368;DHT22;19724;51.114;13.906;2022-12-22T03:26:50;3.70;99.90
33368;DHT22;19724;51.114;13.906;2022-12-22T03:29:15;3.80;99.90
33368;DHT22;19724;51.114;13.906;2022-12-22T03:31:41;3.80;99.90
33368;DHT22;19724;51.114;13.906;2022-12-22T03:34:06;3.80;99.90
33368;DHT22;19724;51.114;13.906;2022-12-22T03:36:32;3.80;99.90
33368;DHT22;19724;51.114;13.906;2022-12-22T03:38:57;3.80;99.90
33368;DHT22;19724;51.114;13.906;2022-12-22T03:41:23;3.80;99.90
33368;DHT22;19724;51.114;13.906;2022-12-22T03:44:17;3.80;99.90
33368;DHT22;19724;51.114;13.906;2022-12-22T03:47:01;3.80;99.90
33368;DHT22;19724;51.114;13.906;2022-12-22T03:49:27;3.90;99.90
33368;DHT22;19724;51.114;13.906;2022-12-22T03:51:53;3.80;99.90
33368;DHT22;19724;51.114;13.906;2022-12-22T03:54:23;3.80;99.90
33368;DHT22;19724;51.114;13.906;2022-12-22T03:56:50;3.80;99.90
33368;DHT22;19724;51.114;13.906;2022-12-22T03:59:16;3.90;99.90
33368;DHT22;19724;51.114;13.906;2022-12-22T04:01:44;4.00;99.90
33368;DHT22;19724;51.114;13.906;2022-12-22T04:04:11;4.00;99.90
33368;DHT22;19724;51.114;13.906;2022-12-22T04:06:37;4.00;99.90
33368;DHT22;19724;51.114;13.906;2022-12-22T04:09:03;4.00;99.90
33368;DHT22;19724;51.114;13.906;2022-12-22T04:11:29;4.00;99.90
33368;DHT22;19724;51.114;13.906;2022-12-22T04:14:13;4.00;99.90
33368;DHT22;19724;51.114;13.906;2022-12-22T04:16:38;4.00;99.90
33368;DHT22;19724;51.114;13.906;2022-12-22T04:19:04;4.00;99.90
33368;DHT22;19724;51.114;13.906;2022-12-22T04:21:30;4.10;99.90
33368;DHT22;19724;51.114;13.906;2022-12-22T04:23:56;4.10;99.90
33368;DHT22;19724;51.114;13.906;2022-12-22T04:26:23;4.10;99.90
33368;DHT22;19724;51.114;13.906;2022-12-22T04:28:50;4.10;99.90
33368;DHT22;19724;51.114;13.906;2022-12-22T04:31:15;4.20;99.90
33368;DHT22;19724;51.114;13.906;2022-12-22T04:33:41;4.20;99.90
33368;DHT22;19724;51.114;13.906;2022-12-22T04:36:07;4.30;99.90
33368;DHT22;19724;51.114;13.906;2022-12-22T04:38:33;4.20;99.90
33368;DHT22;19724;51.114;13.906;2022-12-22T04:40:59;4.30;99.90
33368;DHT22;19724;51.114;13.906;2022-12-22T04:43:24;4.20;99.90
33368;DHT22;19724;51.114;13.906;2022-12-22T04:45:54;4.20;99.90
33368;DHT22;19724;51.114;13.906;2022-12-22T04:48:20;4.10;99.90
33368;DHT22;19724;51.114;13.906;2022-12-22T04:50:50;4.30;99.90
33368;DHT22;19724;51.114;13.906;2022-12-22T04:53:15;4.20;99.90
33368;DHT22;19724;51.114;13.906;2022-12-22T04:55:57;4.20;99.90
33368;DHT22;19724;51.114;13.906;2022-12-22T04:58:23;4.20;99.90
33368;DHT22;19724;51.114;13.906;2022-12-22T05:00:48;4.20;99.90
33368;DHT22;19724;51.114;13.906;2022-12-22T05:03:14;4.20;99.90
33368;DHT22;19724;51.114;13.906;2022-12-22T05:05:39;4.20;99.90
33368;DHT22;19724;51.114;13.906;2022-12-22T05:08:05;4.20;99.90
33368;DHT22;19724;51.114;13.906;2022-12-22T05:10:31;4.20;99.90
33368;DHT22;19724;51.114;13.906;2022-12-22T05:12:57;4.20;99.90
33368;DHT22;19724;51.114;13.906;2022-12-22T05:15:28;4.20;99.90
33368;DHT22;19724;51.114;13.906;2022-12-22T05:17:54;4.30;99.90
33368;DHT22;19724;51.114;13.906;2022-12-22T05:20:21;4.30;99.90
33368;DHT22;19724;51.114;13.906;2022-12-22T05:22:47;4.30;99.90
33368;DHT22;19724;51.114;13.906;2022-12-22T05:25:13;4.30;99.90
33368;DHT22;19724;51.114;13.906;2022-12-22T05:27:41;4.30;99.90
33368;DHT22;19724;51.114;13.906;2022-12-22T05:30:07;4.30;99.90
33368;DHT22;19724;51.114;13.906;2022-12-22T05:32:33;4.30;99.90
33368;DHT22;19724;51.114;13.906;2022-12-22T05:34:59;4.30;99.90
33368;DHT22;19724;51.114;13.906;2022-12-22T05:37:24;4.30;99.90
33368;DHT22;19724;51.114;13.906;2022-12-22T05:39:49;4.20;99.90
33368;DHT22;19724;51.114;13.906;2022-12-22T05:42:15;4.30;99.90
33368;DHT22;19724;51.114;13.906;2022-12-22T05:45:10;4.20;99.90
33368;DHT22;19724;51.114;13.906;2022-12-22T05:47:37;4.30;99.90
33368;DHT22;19724;51.114;13.906;2022-12-22T05:50:03;4.30;99.90
33368;DHT22;19724;51.114;13.906;2022-12-22T05:52:29;4.30;99.90
33368;DHT22;19724;51.114;13.906;2022-12-22T05:54:54;4.30;99.90
33368;DHT22;19724;51.114;13.906;2022-12-22T05:57:20;4.30;99.90
33368;DHT22;19724;51.114;13.906;2022-12-22T05:59:45;4.30;99.90
33368;DHT22;19724;51.114;13.906;2022-12-22T06:02:11;4.30;99.90
33368;DHT22;19724;51.114;13.906;2022-12-22T06:04:36;4.30;99.90
33368;DHT22;19724;51.114;13.906;2022-12-22T06:07:02;4.30;99.90
33368;DHT22;19724;51.114;13.906;2022-12-22T06:09:27;4.20;99.90
33368;DHT22;19724;51.114;13.906;2022-12-22T06:11:53;4.30;99.90
33368;DHT22;19724;51.114;13.906;2022-12-22T06:14:18;4.30;99.90
33368;DHT22;19724;51.114;13.906;2022-12-22T06:16:44;4.30;99.90
33368;DHT22;19724;51.114;13.906;2022-12-22T06:19:09;4.20;99.90
33368;DHT22;19724;51.114;13.906;2022-12-22T06:21:35;4.30;99.90
33368;DHT22;19724;51.114;13.906;2022-12-22T06:24:00;4.30;99.90
33368;DHT22;19724;51.114;13.906;2022-12-22T06:26:26;4.30;99.90
33368;DHT22;19724;51.114;13.906;2022-12-22T06:28:51;4.30;99.90
33368;DHT22;19724;51.114;13.906;2022-12-22T06:31:16;4.30;99.90
33368;DHT22;19724;51.114;13.906;2022-12-22T06:33:42;4.40;99.90
33368;DHT22;19724;51.114;13.906;2022-12-22T06:36:08;4.30;99.90
33368;DHT22;19724;51.114;13.906;2022-12-22T06:38:34;4.30;99.90
33368;DHT22;19724;51.114;13.906;2022-12-22T06:40:59;4.30;99.90
33368;DHT22;19724;51.114;13.906;2022-12-22T06:43:25;4.30;99.90
33368;DHT22;19724;51.114;13.906;2022-12-22T06:45:51;4.30;99.90
33368;DHT22;19724;51.114;13.906;2022-12-22T06:48:17;4.20;99.90
33368;DHT22;19724;51.114;13.906;2022-12-22T06:50:43;4.30;99.90
33368;DHT22;19724;51.114;13.906;2022-12-22T06:53:09;4.30;99.90
33368;DHT22;19724;51.114;13.906;2022-12-22T06:55:35;4.20;99.90
33368;DHT22;19724;51.114;13.906;2022-12-22T06:58:01;4.30;99.90
33368;DHT22;19724;51.114;13.906;2022-12-22T07:00:27;4.30;99.90
33368;DHT22;19724;51.114;13.906;2022-12-22T07:02:52;4.30;99.90
33368;DHT22;19724;51.114;13.906;2022-12-22T07:05:18;4.30;99.90
33368;DHT22;19724;51.114;13.906;2022-12-22T07:07:43;4.30;99.90
33368;DHT22;19724;51.114;13.906;2022-12-22T07:10:09;4.30;99.90
33368;DHT22;19724;51.114;13.906;2022-12-22T07:12:34;4.40;99.90
33368;DHT22;19724;51.114;13.906;2022-12-22T07:15:00;4.30;99.90
33368;DHT22;19724;51.114;13.906;2022-12-22T07:17:25;4.40;99.90
33368;DHT22;19724;51.114;13.906;2022-12-22T07:19:51;4.40;99.90
33368;DHT22;19724;51.114;13.906;2022-12-22T07:22:17;4.40;99.90
33368;DHT22;19724;51.114;13.906;2022-12-22T07:24:43;4.40;99.90
33368;DHT22;19724;51.114;13.906;2022-12-22T07:27:09;4.50;99.90
33368;DHT22;19724;51.114;13.906;2022-12-22T07:29:34;4.40;99.90
33368;DHT22;19724;51.114;13.906;2022-12-22T07:32:01;4.40;99.90
33368;DHT22;19724;51.114;13.906;2022-12-22T07:34:26;4.40;99.90
33368;DHT22;19724;51.114;13.906;2022-12-22T07:36:52;4.40;99.90
33368;DHT22;19724;51.114;13.906;2022-12-22T07:39:17;4.40;99.90
33368;DHT22;19724;51.114;13.906;2022-12-22T07:41:43;4.40;99.90
33368;DHT22;19724;51.114;13.906;2022-12-22T07:44:27;4.40;99.90
33368;DHT22;19724;51.114;13.906;2022-12-22T07:46:52;4.40;99.90
33368;DHT22;19724;51.114;13.906;2022-12-22T07:49:18;4.50;99.90
33368;DHT22;19724;51.114;13.906;2022-12-22T07:52:02;4.50;99.90
33368;DHT22;19724;51.114;13.906;2022-12-22T07:54:27;4.50;99.90
33368;DHT22;19724;51.114;13.906;2022-12-22T07:56:53;4.60;99.90
33368;DHT22;19724;51.114;13.906;2022-12-22T07:59:19;4.60;99.90
33368;DHT22;19724;51.114;13.906;2022-12-22T08:01:44;4.60;99.90
33368;DHT22;19724;51.114;13.906;2022-12-22T08:04:11;4.60;99.90
33368;DHT22;19724;51.114;13.906;2022-12-22T08:06:37;4.70;99.90
33368;DHT22;19724;51.114;13.906;2022-12-22T08:09:03;4.60;99.90
33368;DHT22;19724;51.114;13.906;2022-12-22T08:11:29;4.70;99.90
33368;DHT22;19724;51.114;13.906;2022-12-22T08:13:54;4.80;99.90
33368;DHT22;19724;51.114;13.906;2022-12-22T08:16:20;4.80;99.90
33368;DHT22;19724;51.114;13.906;2022-12-22T08:18:46;4.80;99.90
33368;DHT22;19724;51.114;13.906;2022-12-22T08:21:12;4.80;99.90
33368;DHT22;19724;51.114;13.906;2022-12-22T08:23:38;4.80;99.90
33368;DHT22;19724;51.114;13.906;2022-12-22T08:26:21;4.80;99.90
33368;DHT22;19724;51.114;13.906;2022-12-22T08:29:10;4.90;99.90
33368;DHT22;19724;51.114;13.906;2022-12-22T08:31:38;4.90;99.90
33368;DHT22;19724;51.114;13.906;2022-12-22T08:34:06;5.00;99.90
33368;DHT22;19724;51.114;13.906;2022-12-22T08:36:35;5.00;99.90
33368;DHT22;19724;51.114;13.906;2022-12-22T08:39:03;5.10;99.90
33368;DHT22;19724;51.114;13.906;2022-12-22T08:41:28;5.10;99.90
33368;DHT22;19724;51.114;13.906;2022-12-22T08:44:13;5.20;99.90
33368;DHT22;19724;51.114;13.906;2022-12-22T08:46:38;5.40;99.90
33368;DHT22;19724;51.114;13.906;2022-12-22T08:49:04;5.30;99.90
33368;DHT22;19724;51.114;13.906;2022-12-22T08:51:29;5.50;99.90
33368;DHT22;19724;51.114;13.906;2022-12-22T08:53:55;5.50;99.90
33368;DHT22;19724;51.114;13.906;2022-12-22T08:56:20;5.60;99.90
33368;DHT22;19724;51.114;13.906;2022-12-22T08:58:46;5.60;99.90
33368;DHT22;19724;51.114;13.906;2022-12-22T09:01:19;5.80;99.90
33368;DHT22;19724;51.114;13.906;2022-12-22T09:03:52;5.80;99.90
33368;DHT22;19724;51.114;13.906;2022-12-22T09:06:20;5.80;99.90
33368;DHT22;19724;51.114;13.906;2022-12-22T09:08:46;5.90;99.90
33368;DHT22;19724;51.114;13.906;2022-12-22T09:11:13;6.00;99.90
33368;DHT22;19724;51.114;13.906;2022-12-22T09:13:38;6.10;99.90
33368;DHT22;19724;51.114;13.906;2022-12-22T09:16:05;6.10;99.90
33368;DHT22;19724;51.114;13.906;2022-12-22T09:18:31;6.20;99.90
33368;DHT22;19724;51.114;13.906;2022-12-22T09:20:57;6.30;99.90
33368;DHT22;19724;51.114;13.906;2022-12-22T09:23:23;6.30;99.90
33368;DHT22;19724;51.114;13.906;2022-12-22T09:25:49;6.30;99.90
33368;DHT22;19724;51.114;13.906;2022-12-22T09:28:14;6.40;99.90
33368;DHT22;19724;51.114;13.906;2022-12-22T09:30:40;6.60;99.90
33368;DHT22;19724;51.114;13.906;2022-12-22T09:33:05;6.70;99.90
33368;DHT22;19724;51.114;13.906;2022-12-22T09:35:31;6.80;99.90
33368;DHT22;19724;51.114;13.906;2022-12-22T09:37:56;7.00;99.90
33368;DHT22;19724;51.114;13.906;2022-12-22T09:40:22;7.10;99.90
33368;DHT22;19724;51.114;13.906;2022-12-22T09:42:49;7.10;99.90
33368;DHT22;19724;51.114;13.906;2022-12-22T09:45:16;7.10;99.90
33368;DHT22;19724;51.114;13.906;2022-12-22T09:47:46;7.00;99.90
33368;DHT22;19724;51.114;13.906;2022-12-22T09:50:22;7.00;99.90
33368;DHT22;19724;51.114;13.906;2022-12-22T09:52:53;6.90;99.90
33368;DHT22;19724;51.114;13.906;2022-12-22T09:57:48;6.90;99.90
33368;DHT22;19724;51.114;13.906;2022-12-22T10:00:17;6.90;99.90
33368;DHT22;19724;51.114;13.906;2022-12-22T10:03:25;6.90;99.90
33368;DHT22;19724;51.114;13.906;2022-12-22T10:06:13;7.00;99.90
33368;DHT22;19724;51.114;13.906;2022-12-22T10:08:40;7.00;99.90
33368;DHT22;19724;51.114;13.906;2022-12-22T10:11:06;7.10;99.90
33368;DHT22;19724;51.114;13.906;2022-12-22T10:13:36;7.20;99.90
33368;DHT22;19724;51.114;13.906;2022-12-22T10:16:16;7.30;99.90
33368;DHT22;19724;51.114;13.906;2022-12-22T10:18:54;7.40;99.90
33368;DHT22;19724;51.114;13.906;2022-12-22T10:21:21;7.40;99.90
33368;DHT22;19724;51.114;13.906;2022-12-22T10:23:47;7.50;99.90
33368;DHT22;19724;51.114;13.906;2022-12-22T10:26:18;7.50;99.90
33368;DHT22;19724;51.114;13.906;2022-12-22T10:28:57;7.60;99.90
33368;DHT22;19724;51.114;13.906;2022-12-22T10:31:26;7.70;99.90
33368;DHT22;19724;51.114;13.906;2022-12-22T10:33:54;7.70;99.90
33368;DHT22;19724;51.114;13.906;2022-12-22T10:39:04;7.60;99.90
33368;DHT22;19724;51.114;13.906;2022-12-22T10:41:34;7.60;99.90
33368;DHT22;19724;51.114;13.906;2022-12-22T10:44:03;7.60;99.90
33368;DHT22;19724;51.114;13.906;2022-12-22T10:46:37;7.50;99.90
33368;DHT22;19724;51.114;13.906;2022-12-22T10:49:14;7.50;99.90
33368;DHT22;19724;51.114;13.906;2022-12-22T10:51:44;7.50;99.90
33368;DHT22;19724;51.114;13.906;2022-12-22T10:54:27;7.40;99.90
33368;DHT22;19724;51.114;13.906;2022-12-22T10:57:27;7.40;99.90
33368;DHT22;19724;51.114;13.906;2022-12-22T11:00:00;7.40;99.90
33368;DHT22;19724;51.114;13.906;2022-12-22T11:02:36;7.40;99.90
33368;DHT22;19724;51.114;13.906;2022-12-22T11:05:07;7.40;99.90
33368;DHT22;19724;51.114;13.906;2022-12-22T11:07:36;7.30;99.90
33368;DHT22;19724;51.114;13.906;2022-12-22T11:10:10;7.20;99.90
33368;DHT22;19724;51.114;13.906;2022-12-22T11:15:33;7.10;99.90
33368;DHT22;19724;51.114;13.906;2022-12-22T11:18:24;7.10;99.90
33368;DHT22;19724;51.114;13.906;2022-12-22T11:21:14;7.10;99.90
33368;DHT22;19724;51.114;13.906;2022-12-22T11:34:50;7.00;99.90
33368;DHT22;19724;51.114;13.906;2022-12-22T11:42:52;7.00;99.90
33368;DHT22;19724;51.114;13.906;2022-12-22T11:48:43;7.10;99.90
33368;DHT22;19724;51.114;13.906;2022-12-22T11:57:04;7.10;99.90
33368;DHT22;19724;51.114;13.906;2022-12-22T12:02:54;7.20;99.90
33368;DHT22;19724;51.114;13.906;2022-12-22T12:05:39;7.20;99.90
33368;DHT22;19724;51.114;13.906;2022-12-22T12:13:43;7.20;99.90
33368;DHT22;19724;51.114;13.906;2022-12-22T12:22:03;7.20;99.90
33368;DHT22;19724;51.114;13.906;2022-12-22T12:25:00;7.20;99.90
33368;DHT22;19724;51.114;13.906;2022-12-22T12:30:18;7.20;99.90
33368;DHT22;19724;51.114;13.906;2022-12-22T12:32:59;7.20;99.90
33368;DHT22;19724;51.114;13.906;2022-12-22T12:38:44;7.20;99.90
33368;DHT22;19724;51.114;13.906;2022-12-22T12:43:58;7.20;99.90
33368;DHT22;19724;51.114;13.906;2022-12-22T12:46:45;7.20;99.90
33368;DHT22;19724;51.114;13.906;2022-12-22T12:52:05;7.20;99.90
33368;DHT22;19724;51.114;13.906;2022-12-22T12:57:00;7.20;99.90
33368;DHT22;19724;51.114;13.906;2022-12-22T13:05:26;7.20;99.90
33368;DHT22;19724;51.114;13.906;2022-12-22T13:08:11;7.20;99.90
33368;DHT22;19724;51.114;13.906;2022-12-22T13:13:10;7.30;99.90
33368;DHT22;19724;51.114;13.906;2022-12-22T13:15:39;7.20;99.90
33368;DHT22;19724;51.114;13.906;2022-12-22T13:20:57;7.30;99.90
33368;DHT22;19724;51.114;13.906;2022-12-22T13:23:23;7.30;99.90
33368;DHT22;19724;51.114;13.906;2022-12-22T13:25:58;7.30;99.90
33368;DHT22;19724;51.114;13.906;2022-12-22T13:28:24;7.30;99.90
33368;DHT22;19724;51.114;13.906;2022-12-22T13:30:57;7.30;99.90
33368;DHT22;19724;51.114;13.906;2022-12-22T13:33:26;7.30;99.90
33368;DHT22;19724;51.114;13.906;2022-12-22T13:35:55;7.30;99.90
33368;DHT22;19724;51.114;13.906;2022-12-22T13:38:33;7.30;99.90
33368;DHT22;19724;51.114;13.906;2022-12-22T13:41:01;7.30;99.90
33368;DHT22;19724;51.114;13.906;2022-12-22T13:43:29;7.30;99.90
33368;DHT22;19724;51.114;13.906;2022-12-22T13:45:57;7.30;99.90
33368;DHT22;19724;51.114;13.906;2022-12-22T13:48:37;7.30;99.90
33368;DHT22;19724;51.114;13.906;2022-12-22T13:51:22;7.30;99.90
33368;DHT22;19724;51.114;13.906;2022-12-22T13:53:55;7.20;99.90
33368;DHT22;19724;51.114;13.906;2022-12-22T13:56:33;7.20;99.90
33368;DHT22;19724;51.114;13.906;2022-12-22T13:59:01;7.10;99.90
33368;DHT22;19724;51.114;13.906;2022-12-22T14:01:27;7.10;99.90
33368;DHT22;19724;51.114;13.906;2022-12-22T14:03:58;7.10;99.90
33368;DHT22;19724;51.114;13.906;2022-12-22T14:06:34;7.10;99.90
33368;DHT22;19724;51.114;13.906;2022-12-22T14:09:25;7.00;99.90
33368;DHT22;19724;51.114;13.906;2022-12-22T14:12:02;7.10;99.90
33368;DHT22;19724;51.114;13.906;2022-12-22T14:14:40;7.00;99.90
33368;DHT22;19724;51.114;13.906;2022-12-22T14:17:32;7.10;99.90
33368;DHT22;19724;51.114;13.906;2022-12-22T14:20:00;7.00;99.90
33368;DHT22;19724;51.114;13.906;2022-12-22T14:22:39;7.00;99.90
33368;DHT22;19724;51.114;13.906;2022-12-22T14:25:13;7.00;99.90
33368;DHT22;19724;51.114;13.906;2022-12-22T14:27:47;7.00;99.90
33368;DHT22;19724;51.114;13.906;2022-12-22T14:30:19;6.90;99.90
33368;DHT22;19724;51.114;13.906;2022-12-22T14:32:47;6.90;99.90
33368;DHT22;19724;51.114;13.906;2022-12-22T14:35:33;6.90;99.90
33368;DHT22;19724;51.114;13.906;2022-12-22T14:38:19;6.90;99.90
33368;DHT22;19724;51.114;13.906;2022-12-22T14:40:46;6.90;99.90
33368;DHT22;19724;51.114;13.906;2022-12-22T14:45:40;6.80;99.90
33368;DHT22;19724;51.114;13.906;2022-12-22T14:48:07;6.90;99.90
33368;DHT22;19724;51.114;13.906;2022-12-22T14:50:33;6.90;99.90
33368;DHT22;19724;51.114;13.906;2022-12-22T14:53:01;6.90;99.90
33368;DHT22;19724;51.114;13.906;2022-12-22T14:55:41;6.80;99.90
33368;DHT22;19724;51.114;13.906;2022-12-22T15:00:47;7.10;99.90
33368;DHT22;19724;51.114;13.906;2022-12-22T15:03:32;7.30;99.90
33368;DHT22;19724;51.114;13.906;2022-12-22T15:06:40;7.60;99.90
33368;DHT22;19724;51.114;13.906;2022-12-22T15:08:46;7.80;99.90
33368;DHT22;19724;51.114;13.906;2022-12-22T15:11:15;8.00;99.90
33368;DHT22;19724;51.114;13.906;2022-12-22T15:13:42;8.10;99.90
33368;DHT22;19724;51.114;13.906;2022-12-22T15:16:12;8.40;99.90
33368;DHT22;19724;51.114;13.906;2022-12-22T15:18:39;8.50;99.90
33368;DHT22;19724;51.114;13.906;2022-12-22T15:21:04;8.60;99.90
33368;DHT22;19724;51.114;13.906;2022-12-22T15:23:30;8.80;99.90
33368;DHT22;19724;51.114;13.906;2022-12-22T15:25:55;8.80;99.90
33368;DHT22;19724;51.114;13.906;2022-12-22T15:28:22;8.90;99.90
33368;DHT22;19724;51.114;13.906;2022-12-22T15:30:47;9.00;99.90
33368;DHT22;19724;51.114;13.906;2022-12-22T15:33:15;9.00;99.90
33368;DHT22;19724;51.114;13.906;2022-12-22T15:35:44;9.10;99.90
33368;DHT22;19724;51.114;13.906;2022-12-22T15:38:13;9.20;99.90
33368;DHT22;19724;51.114;13.906;2022-12-22T15:40:38;9.20;99.90
33368;DHT22;19724;51.114;13.906;2022-12-22T15:43:04;9.20;99.90
33368;DHT22;19724;51.114;13.906;2022-12-22T15:45:29;9.10;99.90
33368;DHT22;19724;51.114;13.906;2022-12-22T15:47:55;9.10;99.90
33368;DHT22;19724;51.114;13.906;2022-12-22T15:50:27;9.10;99.90
33368;DHT22;19724;51.114;13.906;2022-12-22T15:52:57;9.10;99.90
33368;DHT22;19724;51.114;13.906;2022-12-22T15:55:23;9.00;99.90
33368;DHT22;19724;51.114;13.906;2022-12-22T15:57:51;9.00;99.90
33368;DHT22;19724;51.114;13.906;2022-12-22T16:00:18;9.00;99.90
33368;DHT22;19724;51.114;13.906;2022-12-22T16:02:44;8.90;99.90
33368;DHT22;19724;51.114;13.906;2022-12-22T16:05:11;8.80;99.90
33368;DHT22;19724;51.114;13.906;2022-12-22T16:07:37;8.90;99.90
33368;DHT22;19724;51.114;13.906;2022-12-22T16:10:05;8.80;99.90
33368;DHT22;19724;51.114;13.906;2022-12-22T16:12:42;8.80;99.90
33368;DHT22;19724;51.114;13.906;2022-12-22T16:15:14;8.80;99.90
33368;DHT22;19724;51.114;13.906;2022-12-22T16:17:39;8.80;99.90
33368;DHT22;19724;51.114;13.906;2022-12-22T16:20:05;8.70;99.90
33368;DHT22;19724;51.114;13.906;2022-12-22T16:22:32;8.70;99.90
33368;DHT22;19724;51.114;13.906;2022-12-22T16:25:02;8.70;99.90
33368;DHT22;19724;51.114;13.906;2022-12-22T16:27:29;8.70;99.90
33368;DHT22;19724;51.114;13.906;2022-12-22T16:29:56;8.70;99.90
33368;DHT22;19724;51.114;13.906;2022-12-22T16:34:48;8.70;99.90
33368;DHT22;19724;51.114;13.906;2022-12-22T16:37:14;8.70;99.90
33368;DHT22;19724;51.114;13.906;2022-12-22T16:39:39;8.70;99.90
33368;DHT22;19724;51.114;13.906;2022-12-22T16:42:13;8.60;99.90
33368;DHT22;19724;51.114;13.906;2022-12-22T16:44:40;8.60;99.90
33368;DHT22;19724;51.114;13.906;2022-12-22T16:47:17;8.60;99.90
33368;DHT22;19724;51.114;13.906;2022-12-22T16:49:45;8.60;99.90
33368;DHT22;19724;51.114;13.906;2022-12-22T16:52:49;8.60;99.90
33368;DHT22;19724;51.114;13.906;2022-12-22T16:55:18;8.60;99.90
33368;DHT22;19724;51.114;13.906;2022-12-22T16:57:44;8.60;99.90
33368;DHT22;19724;51.114;13.906;2022-12-22T17:00:16;8.50;99.90
33368;DHT22;19724;51.114;13.906;2022-12-22T17:02:44;8.50;99.90
33368;DHT22;19724;51.114;13.906;2022-12-22T17:05:25;8.50;99.90
33368;DHT22;19724;51.114;13.906;2022-12-22T17:07:52;8.50;99.90
33368;DHT22;19724;51.114;13.906;2022-12-22T17:10:19;8.40;99.90
33368;DHT22;19724;51.114;13.906;2022-12-22T17:12:46;8.50;99.90
33368;DHT22;19724;51.114;13.906;2022-12-22T17:15:17;8.40;99.90
33368;DHT22;19724;51.114;13.906;2022-12-22T17:17:43;8.40;99.90
33368;DHT22;19724;51.114;13.906;2022-12-22T17:20:20;8.40;99.90
33368;DHT22;19724;51.114;13.906;2022-12-22T17:22:51;8.40;99.90
33368;DHT22;19724;51.114;13.906;2022-12-22T17:25:23;8.30;99.90
33368;DHT22;19724;51.114;13.906;2022-12-22T17:27:49;8.30;99.90
33368;DHT22;19724;51.114;13.906;2022-12-22T17:30:22;8.50;99.90
33368;DHT22;19724;51.114;13.906;2022-12-22T17:32:48;8.30;99.90
33368;DHT22;19724;51.114;13.906;2022-12-22T17:35:15;8.30;99.90
33368;DHT22;19724;51.114;13.906;2022-12-22T17:37:43;8.30;99.90
33368;DHT22;19724;51.114;13.906;2022-12-22T17:40:23;8.30;99.90
33368;DHT22;19724;51.114;13.906;2022-12-22T17:42:51;8.30;99.90